sensor_id;sensor_type;location;lat;lon;timestamp;pressure;altitude;pressure_sealevel;temperature;humidity
21817;BME280;13247;47.504;7.382;2023-11-21T00:01:58;96922.59;;;10.36;100.00
21817;BME280;13247;47.504;7.382;2023-11-21T00:04:42;96919.63;;;10.45;100.00
21817;BME280;13247;47.504;7.382;2023-11-21T00:07:27;96924.81;;;10.46;100.00
21817;BME280;13247;47.504;7.382;2023-11-21T00:10:12;96923.25;;;10.64;100.00
21817;BME280;13247;47.504;7.382;2023-11-21T00:12:58;96922.81;;;10.53;100.00
21817;BME280;13247;47.504;7.382;2023-11-21T00:15:43;96919.88;;;10.39;100.00
21817;BME280;13247;47.504;7.382;2023-11-21T00:18:27;96915.00;;;10.51;100.00
21817;BME280;13247;47.504;7.382;2023-11-21T00:21:12;96918.25;;;10.58;100.00
21817;BME280;13247;47.504;7.382;2023-11-21T00:23:57;96916.78;;;10.51;100.00
21817;BME280;13247;47.504;7.382;2023-11-21T00:26:42;96915.19;;;10.47;100.00
21817;BME280;13247;47.504;7.382;2023-11-21T00:29:26;96921.31;;;10.46;100.00
21817;BME280;13247;47.504;7.382;2023-11-21T00:32:11;96913.63;;;10.18;100.00
21817;BME280;13247;47.504;7.382;2023-11-21T00:34:56;96917.34;;;10.36;100.00
21817;BME280;13247;47.504;7.382;2023-11-21T00:37:40;96909.16;;;10.21;100.00
21817;BME280;13247;47.504;7.382;2023-11-21T00:40:25;96906.84;;;10.36;100.00
21817;BME280;13247;47.504;7.382;2023-11-21T00:43:09;96910.19;;;10.16;100.00
21817;BME280;13247;47.504;7.382;2023-11-21T00:45:54;96902.75;;;10.04;100.00
21817;BME280;13247;47.504;7.382;2023-11-21T00:48:39;96898.47;;;10.03;100.00
21817;BME280;13247;47.504;7.382;2023-11-21T00:51:23;96902.53;;;10.11;100.00
21817;BME280;13247;47.504;7.382;2023-11-21T00:54:09;96898.94;;;10.14;100.00
21817;BME280;13247;47.504;7.382;2023-11-21T00:56:53;96904.34;;;10.09;100.00
21817;BME280;13247;47.504;7.382;2023-11-21T00:59:38;96893.03;;;10.07;100.00
21817;BME280;13247;47.504;7.382;2023-11-21T01:02:23;96893.03;;;10.32;100.00
21817;BME280;13247;47.504;7.382;2023-11-21T01:05:07;96891.06;;;10.37;100.00
21817;BME280;13247;47.504;7.382;2023-11-21T01:07:52;96884.06;;;10.38;100.00
21817;BME280;13247;47.504;7.382;2023-11-21T01:10:37;96885.66;;;10.42;100.00
21817;BME280;13247;47.504;7.382;2023-11-21T01:13:21;96885.16;;;10.32;100.00
21817;BME280;13247;47.504;7.382;2023-11-21T01:16:06;96876.75;;;10.24;100.00
21817;BME280;13247;47.504;7.382;2023-11-21T01:18:51;96883.97;;;10.17;100.00
21817;BME280;13247;47.504;7.382;2023-11-21T01:21:37;96886.53;;;10.19;100.00
21817;BME280;13247;47.504;7.382;2023-11-21T01:24:21;96895.34;;;10.16;100.00
21817;BME280;13247;47.504;7.382;2023-11-21T01:27:06;96890.75;;;9.98;100.00
21817;BME280;13247;47.504;7.382;2023-11-21T01:29:51;96896.31;;;9.89;100.00
21817;BME280;13247;47.504;7.382;2023-11-21T01:32:38;96887.25;;;9.75;100.00
21817;BME280;13247;47.504;7.382;2023-11-21T01:35:23;96884.16;;;9.88;100.00
21817;BME280;13247;47.504;7.382;2023-11-21T01:38:08;96883.88;;;9.71;100.00
21817;BME280;13247;47.504;7.382;2023-11-21T01:40:52;96883.22;;;9.89;100.00
21817;BME280;13247;47.504;7.382;2023-11-21T01:43:37;96879.44;;;9.73;100.00
21817;BME280;13247;47.504;7.382;2023-11-21T01:46:22;96875.59;;;9.83;100.00
21817;BME280;13247;47.504;7.382;2023-11-21T01:49:07;96879.59;;;9.69;100.00
21817;BME280;13247;47.504;7.382;2023-11-21T01:51:54;96879.59;;;9.93;100.00
21817;BME280;13247;47.504;7.382;2023-11-21T01:54:38;96876.34;;;9.62;100.00
21817;BME280;13247;47.504;7.382;2023-11-21T01:57:23;96877.63;;;9.75;100.00
21817;BME280;13247;47.504;7.382;2023-11-21T02:00:09;96877.78;;;9.71;100.00
21817;BME280;13247;47.504;7.382;2023-11-21T02:03:00;96861.50;;;9.63;100.00
21817;BME280;13247;47.504;7.382;2023-11-21T02:05:45;96868.91;;;9.75;100.00
21817;BME280;13247;47.504;7.382;2023-11-21T02:08:29;96871.97;;;9.63;100.00
21817;BME280;13247;47.504;7.382;2023-11-21T02:11:14;96875.91;;;9.74;100.00
21817;BME280;13247;47.504;7.382;2023-11-21T02:13:59;96871.81;;;9.67;100.00
21817;BME280;13247;47.504;7.382;2023-11-21T02:16:45;96874.31;;;9.70;100.00
21817;BME280;13247;47.504;7.382;2023-11-21T02:19:34;96864.06;;;9.64;100.00
21817;BME280;13247;47.504;7.382;2023-11-21T02:22:19;96861.88;;;9.77;100.00
21817;BME280;13247;47.504;7.382;2023-11-21T02:25:05;96852.50;;;9.70;100.00
21817;BME280;13247;47.504;7.382;2023-11-21T02:27:50;96860.78;;;9.82;100.00
21817;BME280;13247;47.504;7.382;2023-11-21T02:30:35;96863.75;;;9.73;100.00
21817;BME280;13247;47.504;7.382;2023-11-21T02:33:21;96864.34;;;10.04;100.00
21817;BME280;13247;47.504;7.382;2023-11-21T02:36:06;96853.72;;;10.07;100.00
21817;BME280;13247;47.504;7.382;2023-11-21T02:38:51;96850.13;;;9.87;100.00
21817;BME280;13247;47.504;7.382;2023-11-21T02:41:39;96846.78;;;9.83;100.00
21817;BME280;13247;47.504;7.382;2023-11-21T02:44:24;96849.91;;;9.93;100.00
21817;BME280;13247;47.504;7.382;2023-11-21T02:47:08;96849.91;;;9.93;100.00
21817;BME280;13247;47.504;7.382;2023-11-21T02:49:53;96844.28;;;10.03;100.00
21817;BME280;13247;47.504;7.382;2023-11-21T02:52:38;96852.69;;;10.13;100.00
21817;BME280;13247;47.504;7.382;2023-11-21T02:55:24;96831.78;;;9.88;100.00
21817;BME280;13247;47.504;7.382;2023-11-21T02:58:09;96840.59;;;9.86;100.00
21817;BME280;13247;47.504;7.382;2023-11-21T03:00:54;96840.84;;;9.78;100.00
21817;BME280;13247;47.504;7.382;2023-11-21T03:03:39;96832.91;;;9.81;100.00
21817;BME280;13247;47.504;7.382;2023-11-21T03:06:27;96836.00;;;9.92;100.00
21817;BME280;13247;47.504;7.382;2023-11-21T03:09:11;96839.56;;;9.90;100.00
21817;BME280;13247;47.504;7.382;2023-11-21T03:11:56;96833.03;;;9.54;100.00
21817;BME280;13247;47.504;7.382;2023-11-21T03:14:41;96829.09;;;9.65;100.00
21817;BME280;13247;47.504;7.382;2023-11-21T03:17:25;96833.91;;;9.77;100.00
21817;BME280;13247;47.504;7.382;2023-11-21T03:20:10;96830.81;;;9.66;100.00
21817;BME280;13247;47.504;7.382;2023-11-21T03:22:58;96842.16;;;9.67;100.00
21817;BME280;13247;47.504;7.382;2023-11-21T03:25:44;96839.53;;;9.67;100.00
21817;BME280;13247;47.504;7.382;2023-11-21T03:28:29;96847.34;;;9.68;100.00
21817;BME280;13247;47.504;7.382;2023-11-21T03:31:15;96846.22;;;9.75;100.00
21817;BME280;13247;47.504;7.382;2023-11-21T03:34:03;96859.84;;;9.60;100.00
21817;BME280;13247;47.504;7.382;2023-11-21T03:36:48;96861.16;;;9.72;100.00
21817;BME280;13247;47.504;7.382;2023-11-21T03:39:33;96855.97;;;9.70;100.00
21817;BME280;13247;47.504;7.382;2023-11-21T03:42:17;96860.41;;;9.68;100.00
21817;BME280;13247;47.504;7.382;2023-11-21T03:45:02;96858.16;;;9.82;100.00
21817;BME280;13247;47.504;7.382;2023-11-21T03:47:47;96861.94;;;9.75;100.00
21817;BME280;13247;47.504;7.382;2023-11-21T03:50:32;96871.34;;;10.04;100.00
21817;BME280;13247;47.504;7.382;2023-11-21T03:53:16;96872.59;;;9.94;100.00
21817;BME280;13247;47.504;7.382;2023-11-21T03:56:02;96874.56;;;9.87;100.00
21817;BME280;13247;47.504;7.382;2023-11-21T03:58:48;96876.34;;;10.11;100.00
21817;BME280;13247;47.504;7.382;2023-11-21T04:01:33;96879.34;;;9.99;100.00
21817;BME280;13247;47.504;7.382;2023-11-21T04:04:17;96869.56;;;10.04;100.00
21817;BME280;13247;47.504;7.382;2023-11-21T04:07:02;96866.25;;;10.24;100.00
21817;BME280;13247;47.504;7.382;2023-11-21T04:09:47;96868.25;;;10.17;100.00
21817;BME280;13247;47.504;7.382;2023-11-21T04:12:32;96871.53;;;10.22;100.00
21817;BME280;13247;47.504;7.382;2023-11-21T04:15:16;96888.41;;;10.15;100.00
21817;BME280;13247;47.504;7.382;2023-11-21T04:18:01;96876.13;;;10.17;100.00
21817;BME280;13247;47.504;7.382;2023-11-21T04:20:48;96884.25;;;9.85;100.00
21817;BME280;13247;47.504;7.382;2023-11-21T04:23:33;96882.50;;;10.09;100.00
21817;BME280;13247;47.504;7.382;2023-11-21T04:26:18;96882.84;;;10.00;100.00
21817;BME280;13247;47.504;7.382;2023-11-21T04:29:03;96880.75;;;10.09;100.00
21817;BME280;13247;47.504;7.382;2023-11-21T04:31:48;96886.88;;;10.08;100.00
21817;BME280;13247;47.504;7.382;2023-11-21T04:34:33;96898.13;;;10.12;100.00
21817;BME280;13247;47.504;7.382;2023-11-21T04:37:19;96904.97;;;10.16;100.00
21817;BME280;13247;47.504;7.382;2023-11-21T04:40:04;96906.22;;;9.81;100.00
21817;BME280;13247;47.504;7.382;2023-11-21T04:42:51;96910.44;;;9.85;100.00
21817;BME280;13247;47.504;7.382;2023-11-21T04:45:35;96905.31;;;10.05;100.00
21817;BME280;13247;47.504;7.382;2023-11-21T04:48:20;96909.78;;;10.28;100.00
21817;BME280;13247;47.504;7.382;2023-11-21T04:51:05;96904.00;;;10.18;100.00
21817;BME280;13247;47.504;7.382;2023-11-21T04:53:50;96909.84;;;9.77;100.00
21817;BME280;13247;47.504;7.382;2023-11-21T04:56:34;96925.78;;;9.71;100.00
21817;BME280;13247;47.504;7.382;2023-11-21T04:59:20;96920.84;;;9.87;100.00
21817;BME280;13247;47.504;7.382;2023-11-21T05:02:05;96915.72;;;9.84;100.00
21817;BME280;13247;47.504;7.382;2023-11-21T05:04:49;96909.88;;;10.00;100.00
21817;BME280;13247;47.504;7.382;2023-11-21T05:07:34;96914.63;;;10.15;100.00
21817;BME280;13247;47.504;7.382;2023-11-21T05:10:22;96909.38;;;10.62;100.00
21817;BME280;13247;47.504;7.382;2023-11-21T05:13:07;96915.97;;;10.25;100.00
21817;BME280;13247;47.504;7.382;2023-11-21T05:15:57;96922.56;;;10.12;100.00
21817;BME280;13247;47.504;7.382;2023-11-21T05:18:42;96932.66;;;9.98;100.00
21817;BME280;13247;47.504;7.382;2023-11-21T05:21:28;96934.88;;;10.10;100.00
21817;BME280;13247;47.504;7.382;2023-11-21T05:24:14;96932.25;;;10.10;100.00
21817;BME280;13247;47.504;7.382;2023-11-21T05:26:58;96935.50;;;9.92;100.00
21817;BME280;13247;47.504;7.382;2023-11-21T05:29:43;96944.41;;;9.87;100.00
21817;BME280;13247;47.504;7.382;2023-11-21T05:32:28;96939.44;;;9.79;100.00
21817;BME280;13247;47.504;7.382;2023-11-21T05:35:12;96952.56;;;9.53;100.00
21817;BME280;13247;47.504;7.382;2023-11-21T05:38:00;96958.16;;;9.69;100.00
21817;BME280;13247;47.504;7.382;2023-11-21T05:40:44;96964.25;;;9.69;100.00
21817;BME280;13247;47.504;7.382;2023-11-21T05:43:29;96967.13;;;9.86;100.00
21817;BME280;13247;47.504;7.382;2023-11-21T05:46:15;96960.97;;;9.87;100.00
21817;BME280;13247;47.504;7.382;2023-11-21T05:49:00;96975.75;;;9.64;100.00
21817;BME280;13247;47.504;7.382;2023-11-21T05:51:44;96989.25;;;9.52;100.00
21817;BME280;13247;47.504;7.382;2023-11-21T05:54:29;96985.94;;;9.97;100.00
21817;BME280;13247;47.504;7.382;2023-11-21T05:57:14;96978.72;;;10.04;100.00
21817;BME280;13247;47.504;7.382;2023-11-21T05:59:58;96980.50;;;10.03;100.00
21817;BME280;13247;47.504;7.382;2023-11-21T06:02:43;96975.91;;;9.85;100.00
21817;BME280;13247;47.504;7.382;2023-11-21T06:05:30;96986.78;;;9.73;100.00
21817;BME280;13247;47.504;7.382;2023-11-21T06:08:16;96981.72;;;9.93;100.00
21817;BME280;13247;47.504;7.382;2023-11-21T06:11:01;96982.38;;;10.00;100.00
21817;BME280;13247;47.504;7.382;2023-11-21T06:13:46;96986.09;;;9.93;100.00
21817;BME280;13247;47.504;7.382;2023-11-21T06:16:32;96978.25;;;9.93;100.00
21817;BME280;13247;47.504;7.382;2023-11-21T06:19:17;96984.41;;;9.92;100.00
21817;BME280;13247;47.504;7.382;2023-11-21T06:22:01;96989.28;;;10.02;100.00
21817;BME280;13247;47.504;7.382;2023-11-21T06:24:46;96990.59;;;9.89;100.00
21817;BME280;13247;47.504;7.382;2023-11-21T06:27:34;96989.25;;;9.78;100.00
21817;BME280;13247;47.504;7.382;2023-11-21T06:30:20;96999.56;;;9.82;100.00
21817;BME280;13247;47.504;7.382;2023-11-21T06:33:06;96987.97;;;9.65;100.00
21817;BME280;13247;47.504;7.382;2023-11-21T06:35:51;97011.25;;;9.72;100.00
21817;BME280;13247;47.504;7.382;2023-11-21T06:38:36;97006.59;;;9.80;100.00
21817;BME280;13247;47.504;7.382;2023-11-21T06:41:21;97004.19;;;9.74;100.00
21817;BME280;13247;47.504;7.382;2023-11-21T06:44:05;97017.06;;;9.82;100.00
21817;BME280;13247;47.504;7.382;2023-11-21T06:46:50;97007.16;;;9.90;100.00
21817;BME280;13247;47.504;7.382;2023-11-21T06:49:36;97006.47;;;10.11;100.00
21817;BME280;13247;47.504;7.382;2023-11-21T06:52:21;97013.47;;;10.10;100.00
21817;BME280;13247;47.504;7.382;2023-11-21T06:55:06;97010.00;;;10.08;100.00
21817;BME280;13247;47.504;7.382;2023-11-21T06:57:52;97005.78;;;10.04;100.00
21817;BME280;13247;47.504;7.382;2023-11-21T07:00:37;97004.94;;;10.04;100.00
21817;BME280;13247;47.504;7.382;2023-11-21T07:03:22;97014.59;;;10.28;100.00
21817;BME280;13247;47.504;7.382;2023-11-21T07:06:09;97015.53;;;10.01;100.00
21817;BME280;13247;47.504;7.382;2023-11-21T07:08:53;97017.78;;;9.85;100.00
21817;BME280;13247;47.504;7.382;2023-11-21T07:11:38;97021.72;;;9.98;100.00
21817;BME280;13247;47.504;7.382;2023-11-21T07:14:23;97024.69;;;9.62;100.00
21817;BME280;13247;47.504;7.382;2023-11-21T07:17:08;97036.16;;;9.58;100.00
21817;BME280;13247;47.504;7.382;2023-11-21T07:19:52;97028.56;;;9.76;100.00
21817;BME280;13247;47.504;7.382;2023-11-21T07:22:36;97019.09;;;9.72;100.00
21817;BME280;13247;47.504;7.382;2023-11-21T07:25:21;97017.09;;;9.80;100.00
21817;BME280;13247;47.504;7.382;2023-11-21T07:28:06;97023.13;;;9.82;100.00
21817;BME280;13247;47.504;7.382;2023-11-21T07:30:51;97019.25;;;10.20;100.00
21817;BME280;13247;47.504;7.382;2023-11-21T07:33:37;97012.94;;;9.99;100.00
21817;BME280;13247;47.504;7.382;2023-11-21T07:36:21;97028.97;;;9.64;100.00
21817;BME280;13247;47.504;7.382;2023-11-21T07:39:06;97045.72;;;9.32;100.00
21817;BME280;13247;47.504;7.382;2023-11-21T07:41:51;97048.06;;;9.40;100.00
21817;BME280;13247;47.504;7.382;2023-11-21T07:44:35;97048.72;;;9.48;100.00
21817;BME280;13247;47.504;7.382;2023-11-21T07:47:20;97052.34;;;9.70;100.00
21817;BME280;13247;47.504;7.382;2023-11-21T07:50:05;97048.50;;;9.80;100.00
21817;BME280;13247;47.504;7.382;2023-11-21T07:52:51;97048.34;;;9.85;100.00
21817;BME280;13247;47.504;7.382;2023-11-21T07:55:36;97048.59;;;10.03;100.00
21817;BME280;13247;47.504;7.382;2023-11-21T07:58:22;97048.59;;;10.03;100.00
21817;BME280;13247;47.504;7.382;2023-11-21T08:01:07;97055.56;;;10.04;100.00
21817;BME280;13247;47.504;7.382;2023-11-21T08:03:52;97047.22;;;10.19;100.00
21817;BME280;13247;47.504;7.382;2023-11-21T08:06:37;97048.41;;;10.09;100.00
21817;BME280;13247;47.504;7.382;2023-11-21T08:09:21;97057.38;;;10.02;100.00
21817;BME280;13247;47.504;7.382;2023-11-21T08:12:08;97055.72;;;10.00;100.00
21817;BME280;13247;47.504;7.382;2023-11-21T08:14:55;97073.06;;;9.76;100.00
21817;BME280;13247;47.504;7.382;2023-11-21T08:17:40;97072.50;;;9.94;100.00
21817;BME280;13247;47.504;7.382;2023-11-21T08:20:25;97076.81;;;9.69;100.00
21817;BME280;13247;47.504;7.382;2023-11-21T08:23:10;97089.47;;;9.55;100.00
21817;BME280;13247;47.504;7.382;2023-11-21T08:25:55;97097.38;;;9.81;100.00
21817;BME280;13247;47.504;7.382;2023-11-21T08:28:40;97092.38;;;10.00;100.00
21817;BME280;13247;47.504;7.382;2023-11-21T08:31:28;97087.22;;;9.97;100.00
21817;BME280;13247;47.504;7.382;2023-11-21T08:34:13;97076.00;;;9.93;100.00
21817;BME280;13247;47.504;7.382;2023-11-21T08:36:59;97074.97;;;9.99;100.00
21817;BME280;13247;47.504;7.382;2023-11-21T08:39:45;97074.84;;;10.77;100.00
21817;BME280;13247;47.504;7.382;2023-11-21T08:42:33;97062.06;;;10.44;100.00
21817;BME280;13247;47.504;7.382;2023-11-21T08:45:18;97053.31;;;10.45;100.00
21817;BME280;13247;47.504;7.382;2023-11-21T08:48:03;97065.41;;;10.24;100.00
21817;BME280;13247;47.504;7.382;2023-11-21T08:50:48;97061.97;;;10.47;100.00
21817;BME280;13247;47.504;7.382;2023-11-21T08:53:32;97056.16;;;10.39;100.00
21817;BME280;13247;47.504;7.382;2023-11-21T08:56:17;97064.38;;;10.28;100.00
21817;BME280;13247;47.504;7.382;2023-11-21T08:59:03;97061.97;;;10.22;100.00
21817;BME280;13247;47.504;7.382;2023-11-21T09:01:48;97062.41;;;10.35;100.00
21817;BME280;13247;47.504;7.382;2023-11-21T09:04:33;97054.78;;;10.52;100.00
21817;BME280;13247;47.504;7.382;2023-11-21T09:07:18;97050.13;;;10.37;100.00
21817;BME280;13247;47.504;7.382;2023-11-21T09:10:05;97058.25;;;10.77;100.00
21817;BME280;13247;47.504;7.382;2023-11-21T09:12:51;97059.44;;;10.68;100.00
21817;BME280;13247;47.504;7.382;2023-11-21T09:15:36;97056.63;;;10.73;100.00
21817;BME280;13247;47.504;7.382;2023-11-21T09:18:21;97057.00;;;10.87;100.00
21817;BME280;13247;47.504;7.382;2023-11-21T09:21:06;97060.88;;;10.77;100.00
21817;BME280;13247;47.504;7.382;2023-11-21T09:23:50;97055.03;;;10.69;100.00
21817;BME280;13247;47.504;7.382;2023-11-21T09:26:36;97042.88;;;10.91;100.00
21817;BME280;13247;47.504;7.382;2023-11-21T09:29:20;97049.06;;;10.88;100.00
21817;BME280;13247;47.504;7.382;2023-11-21T09:32:06;97060.19;;;10.95;100.00
21817;BME280;13247;47.504;7.382;2023-11-21T09:34:52;97055.66;;;10.77;100.00
21817;BME280;13247;47.504;7.382;2023-11-21T09:37:40;97051.00;;;10.83;100.00
21817;BME280;13247;47.504;7.382;2023-11-21T09:40:25;97059.88;;;11.26;100.00
21817;BME280;13247;47.504;7.382;2023-11-21T09:43:16;97063.50;;;11.00;100.00
21817;BME280;13247;47.504;7.382;2023-11-21T09:46:04;97067.63;;;10.59;100.00
21817;BME280;13247;47.504;7.382;2023-11-21T09:48:51;97065.34;;;10.50;100.00
21817;BME280;13247;47.504;7.382;2023-11-21T09:51:42;97067.50;;;10.62;100.00
21817;BME280;13247;47.504;7.382;2023-11-21T09:54:29;97073.59;;;10.64;100.00
21817;BME280;13247;47.504;7.382;2023-11-21T09:57:16;97073.69;;;10.61;100.00
21817;BME280;13247;47.504;7.382;2023-11-21T10:00:02;97069.41;;;10.59;100.00
21817;BME280;13247;47.504;7.382;2023-11-21T10:02:53;97076.19;;;10.40;100.00
21817;BME280;13247;47.504;7.382;2023-11-21T10:05:39;97074.88;;;10.53;100.00
21817;BME280;13247;47.504;7.382;2023-11-21T10:08:24;97071.06;;;10.61;100.00
21817;BME280;13247;47.504;7.382;2023-11-21T10:11:12;97068.50;;;10.60;100.00
21817;BME280;13247;47.504;7.382;2023-11-21T10:14:00;97072.44;;;10.71;100.00
21817;BME280;13247;47.504;7.382;2023-11-21T10:16:48;97069.72;;;10.50;100.00
21817;BME280;13247;47.504;7.382;2023-11-21T10:19:32;97058.47;;;10.94;100.00
21817;BME280;13247;47.504;7.382;2023-11-21T10:22:17;97069.00;;;10.69;100.00
21817;BME280;13247;47.504;7.382;2023-11-21T10:25:04;97067.38;;;10.90;100.00
21817;BME280;13247;47.504;7.382;2023-11-21T10:27:58;97064.81;;;11.12;100.00
21817;BME280;13247;47.504;7.382;2023-11-21T10:30:45;97054.06;;;10.96;100.00
21817;BME280;13247;47.504;7.382;2023-11-21T10:33:30;97055.41;;;11.06;100.00
21817;BME280;13247;47.504;7.382;2023-11-21T10:36:25;97044.56;;;10.92;100.00
21817;BME280;13247;47.504;7.382;2023-11-21T10:39:16;97039.13;;;10.96;100.00
21817;BME280;13247;47.504;7.382;2023-11-21T10:42:04;97030.38;;;10.74;100.00
21817;BME280;13247;47.504;7.382;2023-11-21T10:44:52;97036.75;;;10.90;100.00
21817;BME280;13247;47.504;7.382;2023-11-21T10:47:39;97041.03;;;10.93;100.00
21817;BME280;13247;47.504;7.382;2023-11-21T10:50:24;97048.16;;;10.66;100.00
21817;BME280;13247;47.504;7.382;2023-11-21T10:53:10;97048.59;;;10.77;100.00
21817;BME280;13247;47.504;7.382;2023-11-21T10:56:05;97049.59;;;10.75;100.00
21817;BME280;13247;47.504;7.382;2023-11-21T10:58:51;97049.19;;;10.85;100.00
21817;BME280;13247;47.504;7.382;2023-11-21T11:01:39;97048.72;;;11.21;100.00
21817;BME280;13247;47.504;7.382;2023-11-21T11:04:27;97049.03;;;11.35;100.00
21817;BME280;13247;47.504;7.382;2023-11-21T11:07:16;97048.06;;;11.37;100.00
21817;BME280;13247;47.504;7.382;2023-11-21T11:10:04;97048.66;;;11.22;100.00
21817;BME280;13247;47.504;7.382;2023-11-21T11:12:49;97049.78;;;11.38;100.00
21817;BME280;13247;47.504;7.382;2023-11-21T11:15:37;97047.09;;;11.40;100.00
21817;BME280;13247;47.504;7.382;2023-11-21T11:18:22;97051.50;;;11.39;100.00
21817;BME280;13247;47.504;7.382;2023-11-21T11:21:33;97052.59;;;11.34;100.00
21817;BME280;13247;47.504;7.382;2023-11-21T11:33:46;97066.50;;;11.36;100.00
21817;BME280;13247;47.504;7.382;2023-11-21T11:36:55;97048.94;;;11.38;100.00
21817;BME280;13247;47.504;7.382;2023-11-21T11:39:43;97052.47;;;11.58;100.00
21817;BME280;13247;47.504;7.382;2023-11-21T11:42:30;97050.94;;;11.31;100.00
21817;BME280;13247;47.504;7.382;2023-11-21T11:45:19;97057.16;;;11.05;100.00
21817;BME280;13247;47.504;7.382;2023-11-21T11:48:06;97063.50;;;11.23;100.00
21817;BME280;13247;47.504;7.382;2023-11-21T11:51:10;97057.00;;;11.10;100.00
21817;BME280;13247;47.504;7.382;2023-11-21T11:53:56;97066.44;;;11.37;100.00
21817;BME280;13247;47.504;7.382;2023-11-21T11:56:40;97060.69;;;11.49;100.00
21817;BME280;13247;47.504;7.382;2023-11-21T11:59:26;97062.69;;;11.44;100.00
21817;BME280;13247;47.504;7.382;2023-11-21T12:02:10;97065.88;;;11.29;100.00
21817;BME280;13247;47.504;7.382;2023-11-21T12:04:56;97060.28;;;11.15;100.00
21817;BME280;13247;47.504;7.382;2023-11-21T12:07:43;97062.56;;;11.24;100.00
21817;BME280;13247;47.504;7.382;2023-11-21T12:10:31;97061.78;;;11.22;100.00
21817;BME280;13247;47.504;7.382;2023-11-21T12:13:17;97057.88;;;11.32;100.00
21817;BME280;13247;47.504;7.382;2023-11-21T12:16:02;97059.63;;;11.55;100.00
21817;BME280;13247;47.504;7.382;2023-11-21T12:18:47;97051.31;;;11.65;100.00
21817;BME280;13247;47.504;7.382;2023-11-21T12:21:31;97053.94;;;11.65;100.00
21817;BME280;13247;47.504;7.382;2023-11-21T12:24:17;97054.53;;;11.29;100.00
21817;BME280;13247;47.504;7.382;2023-11-21T12:27:01;97056.97;;;11.33;100.00
21817;BME280;13247;47.504;7.382;2023-11-21T12:29:46;97061.72;;;11.24;100.00
21817;BME280;13247;47.504;7.382;2023-11-21T12:32:31;97065.59;;;11.58;100.00
21817;BME280;13247;47.504;7.382;2023-11-21T12:35:17;97062.09;;;11.36;100.00
21817;BME280;13247;47.504;7.382;2023-11-21T12:38:05;97055.69;;;11.66;100.00
21817;BME280;13247;47.504;7.382;2023-11-21T12:40:50;97057.81;;;11.78;100.00
21817;BME280;13247;47.504;7.382;2023-11-21T12:43:35;97073.03;;;11.70;100.00
21817;BME280;13247;47.504;7.382;2023-11-21T12:46:20;97074.59;;;11.74;100.00
21817;BME280;13247;47.504;7.382;2023-11-21T12:49:06;97072.34;;;11.65;100.00
21817;BME280;13247;47.504;7.382;2023-11-21T12:51:51;97075.94;;;11.63;100.00
21817;BME280;13247;47.504;7.382;2023-11-21T12:54:36;97083.34;;;11.30;100.00
21817;BME280;13247;47.504;7.382;2023-11-21T12:57:21;97103.91;;;10.47;100.00
21817;BME280;13247;47.504;7.382;2023-11-21T13:00:17;97114.72;;;10.62;100.00
21817;BME280;13247;47.504;7.382;2023-11-21T13:03:15;97112.59;;;10.96;100.00
21817;BME280;13247;47.504;7.382;2023-11-21T13:06:10;97129.53;;;10.63;100.00
21817;BME280;13247;47.504;7.382;2023-11-21T13:08:55;97132.81;;;10.70;100.00
21817;BME280;13247;47.504;7.382;2023-11-21T13:11:43;97138.38;;;10.61;100.00
21817;BME280;13247;47.504;7.382;2023-11-21T13:14:30;97140.72;;;10.93;100.00
21817;BME280;13247;47.504;7.382;2023-11-21T13:17:16;97148.53;;;10.45;100.00
21817;BME280;13247;47.504;7.382;2023-11-21T13:20:01;97144.91;;;10.74;100.00
21817;BME280;13247;47.504;7.382;2023-11-21T13:22:51;97134.31;;;10.77;100.00
21817;BME280;13247;47.504;7.382;2023-11-21T13:25:42;97144.06;;;10.98;100.00
21817;BME280;13247;47.504;7.382;2023-11-21T13:28:26;97146.16;;;11.12;100.00
21817;BME280;13247;47.504;7.382;2023-11-21T13:31:16;97153.63;;;10.99;100.00
21817;BME280;13247;47.504;7.382;2023-11-21T13:34:21;97155.34;;;10.51;100.00
21817;BME280;13247;47.504;7.382;2023-11-21T13:37:09;97158.81;;;10.76;100.00
21817;BME280;13247;47.504;7.382;2023-11-21T13:39:54;97152.50;;;10.81;100.00
21817;BME280;13247;47.504;7.382;2023-11-21T13:42:40;97144.06;;;11.21;100.00
21817;BME280;13247;47.504;7.382;2023-11-21T13:45:26;97145.38;;;11.33;100.00
21817;BME280;13247;47.504;7.382;2023-11-21T13:48:13;97142.56;;;11.37;100.00
21817;BME280;13247;47.504;7.382;2023-11-21T13:50:58;97150.53;;;11.57;100.00
21817;BME280;13247;47.504;7.382;2023-11-21T13:53:46;97149.41;;;11.41;100.00
21817;BME280;13247;47.504;7.382;2023-11-21T13:56:37;97149.19;;;11.47;100.00
21817;BME280;13247;47.504;7.382;2023-11-21T13:59:23;97154.03;;;11.58;100.00
21817;BME280;13247;47.504;7.382;2023-11-21T14:02:09;97159.84;;;11.67;100.00
21817;BME280;13247;47.504;7.382;2023-11-21T14:05:16;97169.41;;;10.73;100.00
21817;BME280;13247;47.504;7.382;2023-11-21T14:08:13;97168.56;;;10.97;100.00
21817;BME280;13247;47.504;7.382;2023-11-21T14:11:01;97172.25;;;11.86;100.00
21817;BME280;13247;47.504;7.382;2023-11-21T14:13:45;97152.97;;;11.40;100.00
21817;BME280;13247;47.504;7.382;2023-11-21T14:16:33;97160.63;;;11.23;100.00
21817;BME280;13247;47.504;7.382;2023-11-21T14:19:18;97167.06;;;10.90;100.00
21817;BME280;13247;47.504;7.382;2023-11-21T14:22:03;97170.53;;;10.90;100.00
21817;BME280;13247;47.504;7.382;2023-11-21T14:24:47;97170.53;;;10.90;100.00
21817;BME280;13247;47.504;7.382;2023-11-21T14:27:34;97172.31;;;10.90;100.00
21817;BME280;13247;47.504;7.382;2023-11-21T14:30:19;97180.88;;;10.95;100.00
21817;BME280;13247;47.504;7.382;2023-11-21T14:33:06;97180.22;;;11.13;100.00
21817;BME280;13247;47.504;7.382;2023-11-21T14:35:52;97183.06;;;11.55;100.00
21817;BME280;13247;47.504;7.382;2023-11-21T14:38:37;97179.25;;;11.39;100.00
21817;BME280;13247;47.504;7.382;2023-11-21T14:41:24;97195.41;;;11.28;100.00